Amr R — XUAX5 — position and weather

sailwx.info

Track history (hours):
 
Tides and Currents Weather Stations Pressure Air Temp Water Temp Dewpoint Dewpoint Depression Visibility Wind Speed Wind Dir Waves Ship Positions

Amr R

Last reported at 2015-Jan-28 18:05 UTC. Time now 2015-Jan-30 10:56 UTC.
Position N 40°54' E 028°42'.

Length 130 m; draft 7.1 m.

Type: Cargo ship. MMSI: 514427000.

Date/timePositionNaut miles runAvg speedWind from/ knotsBaromVisibWave heightAir tempDewpointWater temp
2015-Jan-28 18:05N 40°54' E 028°42'6 8.6
2015-Jan-28 17:20N 40°55' E 028°51'5 6.6
2015-Jan-28 16:32N 40°58' E 028°56'0 0.3
2015-Jan-28 15:32N 40°59' E 028°56'1 0.5
2015-Jan-28 12:33N 40°59' E 028°58'18 8.4
2015-Jan-28 10:26N 41°15' E 029°09'4 4.6
2015-Jan-28 09:34N 41°19' E 029°10'6 5.6
2015-Jan-28 08:33N 41°22' E 029°16'2 2.3
2015-Jan-28 07:33N 41°24' E 029°18'1 1.2
2015-Jan-28 06:30N 41°25' E 029°17'1 1.0
2015-Jan-28 05:27N 41°25' E 029°15'2 1.4
2015-Jan-28 04:20N 41°26' E 029°17'400 8.5
2015-Jan-26 05:33N 44°25' E 037°25'6 4.7
2015-Jan-26 04:20N 44°28' E 037°32'7 9.6
2015-Jan-26 03:34N 44°32' E 037°41'9 8.6
2015-Jan-26 02:33N 44°38' E 037°49'5 5.3
2015-Jan-26 01:34N 44°44' E 037°48'0 0.0
2015-Jan-26 00:34N 44°44' E 037°48'0 0.0
2015-Jan-25 23:31N 44°44' E 037°48'0 0.0
2015-Jan-25 22:31N 44°44' E 037°48'0 0.0
2015-Jan-25 21:31N 44°44' E 037°48'0 0.0
2015-Jan-25 20:34N 44°44' E 037°48'0 0.0
2015-Jan-25 19:34N 44°44' E 037°48'0 0.0
2015-Jan-25 18:31N 44°44' E 037°48'0 0.0
2015-Jan-25 17:31N 44°44' E 037°48'0 0.0
2015-Jan-25 16:31N 44°44' E 037°48'0 0.0
2015-Jan-25 15:34N 44°44' E 037°48'0 0.0
2015-Jan-25 14:34N 44°44' E 037°48'0 0.0
2015-Jan-25 13:31N 44°44' E 037°48'0 0.0
2015-Jan-25 12:31N 44°44' E 037°48'0 0.0
2015-Jan-25 11:34N 44°44' E 037°48'0 0.0
2015-Jan-25 10:34N 44°44' E 037°48'0 0.0
2015-Jan-25 09:31N 44°44' E 037°48'0 0.0
2015-Jan-25 08:34N 44°44' E 037°48'0 0.0
2015-Jan-25 07:31N 44°44' E 037°48'0 0.0
2015-Jan-25 06:34N 44°44' E 037°48'0 0.0
2015-Jan-25 05:34N 44°44' E 037°48'0 0.0
2015-Jan-25 04:31N 44°44' E 037°48'0 0.0
2015-Jan-25 03:34N 44°44' E 037°48'0 0.0
2015-Jan-25 02:31N 44°44' E 037°48'0 0.0
2015-Jan-25 01:28N 44°44' E 037°48'0 0.0
2015-Jan-25 00:34N 44°44' E 037°48'0 0.0
2015-Jan-24 23:34N 44°44' E 037°48'0 0.0
2015-Jan-24 22:34N 44°44' E 037°48'0 0.0
2015-Jan-24 21:31N 44°44' E 037°48'0 0.0
2015-Jan-24 20:31N 44°44' E 037°48'0 0.0
2015-Jan-24 19:34N 44°44' E 037°48'0 0.0
2015-Jan-24 18:34N 44°44' E 037°48'0 0.0
2015-Jan-24 17:31N 44°44' E 037°48'0 0.0
2015-Jan-24 16:34N 44°44' E 037°48'0 0.0
2015-Jan-24 15:34N 44°44' E 037°48'0 0.0
2015-Jan-24 14:31N 44°44' E 037°48'0 0.0
2015-Jan-24 13:34N 44°44' E 037°48'0 0.0
2015-Jan-24 12:34N 44°44' E 037°48'0 0.0
2015-Jan-24 11:34N 44°44' E 037°48'0 0.0
2015-Jan-24 10:34N 44°44' E 037°48'0 0.0
2015-Jan-24 09:34N 44°44' E 037°48'0 0.0
2015-Jan-24 08:34N 44°44' E 037°48'0 0.0
2015-Jan-24 07:34N 44°44' E 037°48'0 0.0
2015-Jan-24 06:34N 44°44' E 037°48'0 0.0
2015-Jan-24 05:34N 44°44' E 037°48'0 0.0
2015-Jan-24 04:34N 44°44' E 037°48'0 0.0
2015-Jan-24 03:34N 44°44' E 037°48'0 0.0
2015-Jan-24 02:34N 44°44' E 037°48'0 0.0
2015-Jan-24 01:31N 44°44' E 037°48'0 0.0
2015-Jan-24 00:34N 44°44' E 037°48'0 0.0
2015-Jan-23 23:34N 44°44' E 037°48'0 0.0
2015-Jan-23 22:34N 44°44' E 037°48'0 0.0
2015-Jan-23 21:31N 44°44' E 037°48'0 0.0
2015-Jan-23 20:34N 44°44' E 037°48'0 0.0
2015-Jan-23 19:34N 44°44' E 037°48'0 0.0
2015-Jan-23 18:34N 44°44' E 037°48'0 0.0
2015-Jan-23 17:34N 44°44' E 037°48'0 0.0
2015-Jan-23 16:34N 44°44' E 037°48'0 0.0
2015-Jan-23 15:34N 44°44' E 037°48'0 0.0
2015-Jan-23 14:34N 44°44' E 037°48'0 0.0
2015-Jan-23 13:32N 44°44' E 037°48'0 0.0
2015-Jan-23 12:32N 44°44' E 037°48'0 0.0
2015-Jan-23 11:32N 44°44' E 037°48'0 0.0
2015-Jan-23 10:29N 44°44' E 037°48'0 0.0
2015-Jan-23 09:32N 44°44' E 037°48'0 0.0
2015-Jan-23 08:32N 44°44' E 037°48'0 0.0
2015-Jan-23 07:32N 44°44' E 037°48'0 0.0
2015-Jan-23 06:32N 44°44' E 037°48'0 0.0
2015-Jan-23 05:33N 44°44' E 037°48'0 0.0
2015-Jan-23 04:32N 44°44' E 037°48'0 0.0
2015-Jan-23 03:29N 44°44' E 037°48'0 0.0
2015-Jan-23 02:32N 44°44' E 037°48'0 0.0
2015-Jan-23 01:23N 44°44' E 037°48'0 0.0
2015-Jan-23 00:32N 44°44' E 037°48'0 0.0
2015-Jan-22 23:32N 44°44' E 037°48'0 0.0
2015-Jan-22 22:29N 44°44' E 037°48'0 0.0
2015-Jan-22 21:32N 44°44' E 037°48'0 0.0
2015-Jan-22 20:32N 44°44' E 037°48'0 0.0
2015-Jan-22 19:32N 44°44' E 037°48'0 0.0
2015-Jan-22 18:32N 44°44' E 037°48'0 0.0
2015-Jan-22 17:32N 44°44' E 037°48'0 0.0
2015-Jan-22 16:32N 44°44' E 037°48'0 0.0
2015-Jan-22 15:32N 44°44' E 037°48'0 0.0
2015-Jan-22 14:32N 44°44' E 037°48'0 0.0
2015-Jan-22 13:32N 44°44' E 037°48'0 0.0
2015-Jan-22 12:32N 44°44' E 037°48'0 0.0
2015-Jan-22 11:32N 44°44' E 037°48'0 0.0
2015-Jan-22 10:32N 44°44' E 037°48'0 0.0
2015-Jan-22 09:32N 44°44' E 037°48'0 0.0
2015-Jan-22 08:32N 44°44' E 037°48'0 0.0
2015-Jan-22 07:32N 44°44' E 037°48'0 0.0
2015-Jan-22 06:32N 44°44' E 037°48'0 0.0
2015-Jan-22 05:32N 44°44' E 037°48'0 0.0
2015-Jan-22 04:32N 44°44' E 037°48'0 0.0
2015-Jan-22 03:32N 44°44' E 037°48'0 0.0
2015-Jan-22 02:33N 44°44' E 037°48'0 0.0
2015-Jan-22 01:32N 44°44' E 037°48'0 0.0
2015-Jan-22 00:32N 44°44' E 037°48'0 0.0
2015-Jan-21 23:32N 44°44' E 037°48'0 0.0
2015-Jan-21 22:50N 44°44' E 037°48'0 0.0
2015-Jan-21 22:44N 44°44' E 037°48'0 0.0
2015-Jan-21 22:32N 44°44' E 037°48'0 0.0
2015-Jan-21 21:32N 44°44' E 037°48'0 0.0
2015-Jan-21 20:30N 44°44' E 037°48'0 0.0
2015-Jan-21 19:30N 44°44' E 037°48'0 0.0
2015-Jan-21 18:33N 44°44' E 037°48'0 0.2
2015-Jan-21 17:33N 44°43' E 037°48'6 6.4
2015-Jan-21 16:34N 44°38' E 037°52'3 2.7
2015-Jan-21 15:33N 44°36' E 037°49'3 2.5
2015-Jan-21 14:34N 44°33' E 037°50'8 7.7
2015-Jan-21 13:33N 44°26' E 037°47'0 0.4
2015-Jan-21 12:33N 44°26' E 037°46'0 0.4
2015-Jan-21 11:33N 44°25' E 037°46'1 0.6
2015-Jan-21 10:33N 44°25' E 037°45'1 0.7
2015-Jan-21 09:32N 44°24' E 037°45'1 0.9
2015-Jan-21 08:33N 44°23' E 037°44'1 1.2
2015-Jan-21 07:33N 44°22' E 037°44'1 1.0
2015-Jan-21 06:33N 44°21' E 037°43'6 6.3
2015-Jan-21 05:33N 44°27' E 037°39'9 9.0
2015-Jan-21 04:33N 44°35' E 037°32'11 0.7
2015-Jan-20 12:13N 44°39' E 037°18'2 1.9
2015-Jan-20 11:23N 44°37' E 037°18'5 0.4
2015-Jan-19 22:03N 44°37' E 037°25'1 1.9
2015-Jan-19 21:22N 44°37' E 037°27'1 1.3
2015-Jan-19 20:21N 44°35' E 037°27'2 1.7
2015-Jan-19 19:05N 44°33' E 037°28'1 1.7
2015-Jan-19 18:33N 44°32' E 037°28'2 1.6
2015-Jan-19 17:32N 44°31' E 037°29'2 1.8
2015-Jan-19 16:33N 44°29' E 037°29'8 7.6
2015-Jan-19 15:33N 44°36' E 037°24'5 1.0
2015-Jan-19 10:33N 44°39' E 037°18'2 1.9
2015-Jan-19 09:33N 44°37' E 037°19'2 1.8
2015-Jan-19 08:33N 44°35' E 037°20'2 2.1
2015-Jan-19 07:33N 44°33' E 037°21'2 2.2
2015-Jan-19 06:33N 44°31' E 037°22'2 2.2
2015-Jan-19 05:34N 44°29' E 037°23'3 2.4
2015-Jan-19 04:19N 44°26' E 037°25'7 2.5
2015-Jan-19 01:32N 44°20' E 037°29'6 5.5
2015-Jan-19 00:31N 44°24' E 037°35'2 2.5
2015-Jan-18 23:33N 44°22' E 037°38'7 2.5
2015-Jan-18 20:32N 44°26' E 037°47'7 7.1
2015-Jan-18 19:34N 44°33' E 037°47'2 1.8
2015-Jan-18 18:33N 44°31' E 037°46'  
Track history (hours):
 
Tides and Currents Weather Stations Pressure Air Temp Water Temp Dewpoint Dewpoint Depression Visibility Wind Speed Wind Dir Waves Ship Positions

Amr R

Last reported at 2015-Jan-28 18:05 UTC. Time now 2015-Jan-30 10:56 UTC.
Position N 40°54' E 028°42'.

Length 130 m; draft 7.1 m.

Type: Cargo ship. MMSI: 514427000.

Date/timePositionNaut miles runAvg speedWind from/ knotsBaromVisibWave heightAir tempDewpointWater temp
2015-Jan-28 18:05N 40°54' E 028°42'6 8.6
2015-Jan-28 17:20N 40°55' E 028°51'5 6.6
2015-Jan-28 16:32N 40°58' E 028°56'0 0.3
2015-Jan-28 15:32N 40°59' E 028°56'1 0.5
2015-Jan-28 12:33N 40°59' E 028°58'18 8.4
2015-Jan-28 10:26N 41°15' E 029°09'4 4.6
2015-Jan-28 09:34N 41°19' E 029°10'6 5.6
2015-Jan-28 08:33N 41°22' E 029°16'2 2.3
2015-Jan-28 07:33N 41°24' E 029°18'1 1.2
2015-Jan-28 06:30N 41°25' E 029°17'1 1.0
2015-Jan-28 05:27N 41°25' E 029°15'2 1.4
2015-Jan-28 04:20N 41°26' E 029°17'400 8.5
2015-Jan-26 05:33N 44°25' E 037°25'6 4.7
2015-Jan-26 04:20N 44°28' E 037°32'7 9.6
2015-Jan-26 03:34N 44°32' E 037°41'9 8.6
2015-Jan-26 02:33N 44°38' E 037°49'5 5.3
2015-Jan-26 01:34N 44°44' E 037°48'0 0.0
2015-Jan-26 00:34N 44°44' E 037°48'0 0.0
2015-Jan-25 23:31N 44°44' E 037°48'0 0.0
2015-Jan-25 22:31N 44°44' E 037°48'0 0.0
2015-Jan-25 21:31N 44°44' E 037°48'0 0.0
2015-Jan-25 20:34N 44°44' E 037°48'0 0.0
2015-Jan-25 19:34N 44°44' E 037°48'0 0.0
2015-Jan-25 18:31N 44°44' E 037°48'0 0.0
2015-Jan-25 17:31N 44°44' E 037°48'0 0.0
2015-Jan-25 16:31N 44°44' E 037°48'0 0.0
2015-Jan-25 15:34N 44°44' E 037°48'0 0.0
2015-Jan-25 14:34N 44°44' E 037°48'0 0.0
2015-Jan-25 13:31N 44°44' E 037°48'0 0.0
2015-Jan-25 12:31N 44°44' E 037°48'0 0.0
2015-Jan-25 11:34N 44°44' E 037°48'0 0.0
2015-Jan-25 10:34N 44°44' E 037°48'0 0.0
2015-Jan-25 09:31N 44°44' E 037°48'0 0.0
2015-Jan-25 08:34N 44°44' E 037°48'0 0.0
2015-Jan-25 07:31N 44°44' E 037°48'0 0.0
2015-Jan-25 06:34N 44°44' E 037°48'0 0.0
2015-Jan-25 05:34N 44°44' E 037°48'0 0.0
2015-Jan-25 04:31N 44°44' E 037°48'0 0.0
2015-Jan-25 03:34N 44°44' E 037°48'0 0.0
2015-Jan-25 02:31N 44°44' E 037°48'0 0.0
2015-Jan-25 01:28N 44°44' E 037°48'0 0.0
2015-Jan-25 00:34N 44°44' E 037°48'0 0.0
2015-Jan-24 23:34N 44°44' E 037°48'0 0.0
2015-Jan-24 22:34N 44°44' E 037°48'0 0.0
2015-Jan-24 21:31N 44°44' E 037°48'0 0.0
2015-Jan-24 20:31N 44°44' E 037°48'0 0.0
2015-Jan-24 19:34N 44°44' E 037°48'0 0.0
2015-Jan-24 18:34N 44°44' E 037°48'0 0.0
2015-Jan-24 17:31N 44°44' E 037°48'0 0.0
2015-Jan-24 16:34N 44°44' E 037°48'0 0.0
2015-Jan-24 15:34N 44°44' E 037°48'0 0.0
2015-Jan-24 14:31N 44°44' E 037°48'0 0.0
2015-Jan-24 13:34N 44°44' E 037°48'0 0.0
2015-Jan-24 12:34N 44°44' E 037°48'0 0.0
2015-Jan-24 11:34N 44°44' E 037°48'0 0.0
2015-Jan-24 10:34N 44°44' E 037°48'0 0.0
2015-Jan-24 09:34N 44°44' E 037°48'0 0.0
2015-Jan-24 08:34N 44°44' E 037°48'0 0.0
2015-Jan-24 07:34N 44°44' E 037°48'0 0.0
2015-Jan-24 06:34N 44°44' E 037°48'0 0.0
2015-Jan-24 05:34N 44°44' E 037°48'0 0.0
2015-Jan-24 04:34N 44°44' E 037°48'0 0.0
2015-Jan-24 03:34N 44°44' E 037°48'0 0.0
2015-Jan-24 02:34N 44°44' E 037°48'0 0.0
2015-Jan-24 01:31N 44°44' E 037°48'0 0.0
2015-Jan-24 00:34N 44°44' E 037°48'0 0.0
2015-Jan-23 23:34N 44°44' E 037°48'0 0.0
2015-Jan-23 22:34N 44°44' E 037°48'0 0.0
2015-Jan-23 21:31N 44°44' E 037°48'0 0.0
2015-Jan-23 20:34N 44°44' E 037°48'0 0.0
2015-Jan-23 19:34N 44°44' E 037°48'0 0.0
2015-Jan-23 18:34N 44°44' E 037°48'0 0.0
2015-Jan-23 17:34N 44°44' E 037°48'0 0.0
2015-Jan-23 16:34N 44°44' E 037°48'0 0.0
2015-Jan-23 15:34N 44°44' E 037°48'0 0.0
2015-Jan-23 14:34N 44°44' E 037°48'0 0.0
2015-Jan-23 13:32N 44°44' E 037°48'0 0.0
2015-Jan-23 12:32N 44°44' E 037°48'0 0.0
2015-Jan-23 11:32N 44°44' E 037°48'0 0.0
2015-Jan-23 10:29N 44°44' E 037°48'0 0.0
2015-Jan-23 09:32N 44°44' E 037°48'0 0.0
2015-Jan-23 08:32N 44°44' E 037°48'0 0.0
2015-Jan-23 07:32N 44°44' E 037°48'0 0.0
2015-Jan-23 06:32N 44°44' E 037°48'0 0.0
2015-Jan-23 05:33N 44°44' E 037°48'0 0.0
2015-Jan-23 04:32N 44°44' E 037°48'0 0.0
2015-Jan-23 03:29N 44°44' E 037°48'0 0.0
2015-Jan-23 02:32N 44°44' E 037°48'0 0.0
2015-Jan-23 01:23N 44°44' E 037°48'0 0.0
2015-Jan-23 00:32N 44°44' E 037°48'0 0.0
2015-Jan-22 23:32N 44°44' E 037°48'0 0.0
2015-Jan-22 22:29N 44°44' E 037°48'0 0.0
2015-Jan-22 21:32N 44°44' E 037°48'0 0.0
2015-Jan-22 20:32N 44°44' E 037°48'0 0.0
2015-Jan-22 19:32N 44°44' E 037°48'0 0.0
2015-Jan-22 18:32N 44°44' E 037°48'0 0.0
2015-Jan-22 17:32N 44°44' E 037°48'0 0.0
2015-Jan-22 16:32N 44°44' E 037°48'0 0.0
2015-Jan-22 15:32N 44°44' E 037°48'0 0.0
2015-Jan-22 14:32N 44°44' E 037°48'0 0.0
2015-Jan-22 13:32N 44°44' E 037°48'0 0.0
2015-Jan-22 12:32N 44°44' E 037°48'0 0.0
2015-Jan-22 11:32N 44°44' E 037°48'0 0.0
2015-Jan-22 10:32N 44°44' E 037°48'0 0.0
2015-Jan-22 09:32N 44°44' E 037°48'0 0.0
2015-Jan-22 08:32N 44°44' E 037°48'0 0.0
2015-Jan-22 07:32N 44°44' E 037°48'0 0.0
2015-Jan-22 06:32N 44°44' E 037°48'0 0.0
2015-Jan-22 05:32N 44°44' E 037°48'0 0.0
2015-Jan-22 04:32N 44°44' E 037°48'0 0.0
2015-Jan-22 03:32N 44°44' E 037°48'0 0.0
2015-Jan-22 02:33N 44°44' E 037°48'0 0.0
2015-Jan-22 01:32N 44°44' E 037°48'0 0.0
2015-Jan-22 00:32N 44°44' E 037°48'0 0.0
2015-Jan-21 23:32N 44°44' E 037°48'0 0.0
2015-Jan-21 22:50N 44°44' E 037°48'0 0.0
2015-Jan-21 22:44N 44°44' E 037°48'0 0.0
2015-Jan-21 22:32N 44°44' E 037°48'0 0.0
2015-Jan-21 21:32N 44°44' E 037°48'0 0.0
2015-Jan-21 20:30N 44°44' E 037°48'0 0.0
2015-Jan-21 19:30N 44°44' E 037°48'0 0.0
2015-Jan-21 18:33N 44°44' E 037°48'0 0.2
2015-Jan-21 17:33N 44°43' E 037°48'6 6.4
2015-Jan-21 16:34N 44°38' E 037°52'3 2.7
2015-Jan-21 15:33N 44°36' E 037°49'3 2.5
2015-Jan-21 14:34N 44°33' E 037°50'8 7.7
2015-Jan-21 13:33N 44°26' E 037°47'0 0.4
2015-Jan-21 12:33N 44°26' E 037°46'0 0.4
2015-Jan-21 11:33N 44°25' E 037°46'1 0.6
2015-Jan-21 10:33N 44°25' E 037°45'1 0.7
2015-Jan-21 09:32N 44°24' E 037°45'1 0.9
2015-Jan-21 08:33N 44°23' E 037°44'1 1.2
2015-Jan-21 07:33N 44°22' E 037°44'1 1.0
2015-Jan-21 06:33N 44°21' E 037°43'6 6.3
2015-Jan-21 05:33N 44°27' E 037°39'9 9.0
2015-Jan-21 04:33N 44°35' E 037°32'11 0.7
2015-Jan-20 12:13N 44°39' E 037°18'2 1.9
2015-Jan-20 11:23N 44°37' E 037°18'5 0.4
2015-Jan-19 22:03N 44°37' E 037°25'1 1.9
2015-Jan-19 21:22N 44°37' E 037°27'1 1.3
2015-Jan-19 20:21N 44°35' E 037°27'2 1.7
2015-Jan-19 19:05N 44°33' E 037°28'1 1.7
2015-Jan-19 18:33N 44°32' E 037°28'2 1.6
2015-Jan-19 17:32N 44°31' E 037°29'2 1.8
2015-Jan-19 16:33N 44°29' E 037°29'8 7.6
2015-Jan-19 15:33N 44°36' E 037°24'5 1.0
2015-Jan-19 10:33N 44°39' E 037°18'2 1.9
2015-Jan-19 09:33N 44°37' E 037°19'2 1.8
2015-Jan-19 08:33N 44°35' E 037°20'2 2.1
2015-Jan-19 07:33N 44°33' E 037°21'2 2.2
2015-Jan-19 06:33N 44°31' E 037°22'2 2.2
2015-Jan-19 05:34N 44°29' E 037°23'3 2.4
2015-Jan-19 04:19N 44°26' E 037°25'7 2.5
2015-Jan-19 01:32N 44°20' E 037°29'6 5.5
2015-Jan-19 00:31N 44°24' E 037°35'2 2.5
2015-Jan-18 23:33N 44°22' E 037°38'7 2.5
2015-Jan-18 20:32N 44°26' E 037°47'7 7.1
2015-Jan-18 19:34N 44°33' E 037°47'2 1.8
2015-Jan-18 18:33N 44°31' E 037°46'  

Dump ship's entire track history